Murphy, North Carolina
Current Conditions -  °F | °C
As of 3:55 AM on Wednesday 22 Oct 2014 (Local Time) from KRHP Reporting Station
Clear Clear  
Wind Chill: 40°   Ceiling: Unl
Heat Index: 40°   Visibility: 10mi
Dew Point: 37°   Wind: 3mph
Humidity: 89%   Direction: 90°E
Pressure: 30.06"   Gusts: NA
Location:  35.09°N, 84.03°W
Report Text: KRHP 220755Z AUTO 09003KT 10SM CLR 04/03 A3006 RMK AO2 T00420026
Loading
Personal Weather Stations






























Interactive Weather Map
Tropical Storm Tracking
New forecast layout! Learn more

10-Day Weather Forecast

Advertisements
Track Severe Weather on mobile